Startpagina
METAR-TAF:

METAR-TAF

Vliegvelden :

Groningen, Nederland

Groningen Airport Eelde

breedte: 53-08N, lengte: 006-35E, hoogte: 4 m

Actueel weer

Dit bericht is 26 minuten geleden gemaakt, om 18:55 UTC
Wind 3 kt uit het oostzuidoosten, variërend tussen het oosten en het zuidzuidoosten
Temperatuur 20°C
Vochtigheid 46%
Druk 1015 hPa
Zicht 10 km of meer

METAR: EHGG 221855Z AUTO 12003KT 090V150 9999 NSC 20/08 Q1015 NOSIG

Tijdstip: 21:21 (19:21 UTC)

Verwachting

Dit bericht is 2 uur en het 28 minuten geleden gemaakt, om 16:53 UTC
Verwachting geldig van 22 om 18 UTC tot 23 om 24 UTC
Wind 6 kt uit het zuidzuidoosten
Zicht 10 km of meer
geen wolken onder 1500 m en geen cumulonimbus
Wijzigt naar
van 23 om 09 UTC tot 23 om 12 UTC
Wind 15 kt uit het westnoordwesten met uitschieters tot 25 kt
Wijzigt naar
van 23 om 17 UTC tot 23 om 20 UTC
Wind 7 kt uit het westen

TAF: EHGG 221653Z 2218/2324 15006KT CAVOK BECMG 2309/2312 30015G25KT BECMG 2317/2320 28007KT

Waarnemingen en weersverwachtingen van meer dan 4000 vliegvelden (METAR en TAF).

De beschikbare stations zijn de gele en rode punten op de kaart.

Ga met uw muis naar het station om de naam te zien.

Klik dan om waarnemingen en weersverwachtingen te zien.

kaart wijzigen: klik op de groene knoppen met een zwart kruis om in te zoomen, op de groene knop met een streepje om uit te zoomen of op de groene pijlen voor aangrenzende kaarten.


METAR-TAF: